createdAt,value
2019-01-18T00:02:22.101Z,6.80
2019-01-18T00:04:51.982Z,7.67
2019-01-18T00:07:21.688Z,8.40
2019-01-18T00:09:51.357Z,9.70
2019-01-18T00:12:21.120Z,8.17
2019-01-18T00:14:50.833Z,8.30
2019-01-18T00:17:20.543Z,9.03
2019-01-18T00:19:50.265Z,8.10
2019-01-18T00:22:19.953Z,8.83
2019-01-18T00:24:49.743Z,9.83
2019-01-18T00:27:19.503Z,7.50
2019-01-18T00:29:49.264Z,8.70
2019-01-18T00:32:18.959Z,7.30
2019-01-18T00:34:48.854Z,9.00
2019-01-18T00:37:18.622Z,7.53
2019-01-18T00:39:48.526Z,12.57
2019-01-18T00:42:18.193Z,11.40
2019-01-18T00:44:48.048Z,12.03
2019-01-18T00:47:17.701Z,10.50
2019-01-18T00:49:47.408Z,9.73
2019-01-18T00:52:17.135Z,10.43
2019-01-18T00:54:46.816Z,10.27
2019-01-18T00:57:17.243Z,10.23
2019-01-18T00:59:47.028Z,12.00
2019-01-18T01:02:17.192Z,11.77
2019-01-18T01:04:47.484Z,13.37
2019-01-18T01:07:18.773Z,11.73
2019-01-18T01:09:48.480Z,11.57
2019-01-18T01:12:18.255Z,17.70
2019-01-18T01:14:47.989Z,13.90
2019-01-18T01:17:17.746Z,12.33
2019-01-18T01:19:47.417Z,13.87
2019-01-18T01:22:17.154Z,14.00
2019-01-18T01:24:46.899Z,12.53
2019-01-18T01:27:16.682Z,14.80
2019-01-18T01:29:46.396Z,12.87
2019-01-18T01:32:16.134Z,15.27
2019-01-18T01:34:45.854Z,11.23
2019-01-18T01:37:15.708Z,10.30
2019-01-18T01:39:45.429Z,14.63
2019-01-18T01:42:15.194Z,10.53
2019-01-18T01:44:44.949Z,10.77
2019-01-18T01:47:14.679Z,10.47
2019-01-18T01:49:44.382Z,10.37
2019-01-18T01:52:14.223Z,11.07
2019-01-18T01:54:44.117Z,9.90
2019-01-18T01:57:13.867Z,10.73
2019-01-18T01:59:49.672Z,8.90
2019-01-18T02:02:15.042Z,6.87
2019-01-18T02:04:44.975Z,8.13
2019-01-18T02:07:14.670Z,9.57
2019-01-18T02:09:44.625Z,12.67
2019-01-18T02:12:14.558Z,7.63
2019-01-18T02:14:44.325Z,8.00
2019-01-18T02:17:14.175Z,11.27
2019-01-18T02:19:43.925Z,7.80
2019-01-18T02:22:13.762Z,7.57
2019-01-18T02:24:43.625Z,9.00
2019-01-18T02:27:13.360Z,11.20
2019-01-18T02:29:43.409Z,6.70
2019-01-18T02:32:13.208Z,5.87
2019-01-18T02:34:43.031Z,4.47
2019-01-18T02:37:12.777Z,4.03
2019-01-18T02:39:42.500Z,5.60
2019-01-18T02:42:12.243Z,2.07
2019-01-18T02:44:41.991Z,2.20
2019-01-18T02:47:11.690Z,2.10
2019-01-18T02:49:41.399Z,2.97
2019-01-18T02:52:11.150Z,3.27
2019-01-18T02:54:40.992Z,3.70
2019-01-18T02:57:10.757Z,2.23
2019-01-18T02:59:40.547Z,3.13
2019-01-18T03:02:10.354Z,3.33
2019-01-18T03:04:40.071Z,4.30
2019-01-18T03:07:09.898Z,4.50
2019-01-18T03:09:39.647Z,3.93
2019-01-18T03:12:09.431Z,5.87
2019-01-18T03:14:39.083Z,2.57
2019-01-18T03:17:08.898Z,3.60
2019-01-18T03:19:38.664Z,3.90
2019-01-18T03:22:08.497Z,3.47
2019-01-18T03:24:40.481Z,3.20
2019-01-18T03:27:10.163Z,3.33
2019-01-18T03:29:39.982Z,2.80
2019-01-18T03:32:09.743Z,3.03
2019-01-18T03:34:39.539Z,3.13
2019-01-18T03:37:09.436Z,2.77
2019-01-18T03:39:39.435Z,3.60
2019-01-18T03:42:09.270Z,3.47
2019-01-18T03:44:38.958Z,2.93
2019-01-18T03:47:08.784Z,3.30
2019-01-18T03:49:38.691Z,2.23
2019-01-18T03:52:08.481Z,4.47
2019-01-18T03:54:38.212Z,2.17
2019-01-18T03:57:08.368Z,2.60
2019-01-18T03:59:38.002Z,3.10
2019-01-18T04:02:07.838Z,2.50
2019-01-18T04:04:37.547Z,2.40
2019-01-18T04:07:07.278Z,3.10
2019-01-18T04:09:36.942Z,1.80
2019-01-18T04:12:06.606Z,3.13
2019-01-18T04:14:36.695Z,1.90
2019-01-18T04:17:06.477Z,5.10
2019-01-18T04:19:36.291Z,4.43
2019-01-18T04:22:05.997Z,3.27
2019-01-18T04:24:35.718Z,4.60
2019-01-18T04:27:05.437Z,4.60
2019-01-18T04:29:35.162Z,3.27
2019-01-18T04:32:05.145Z,5.77
2019-01-18T04:34:34.878Z,2.73
2019-01-18T04:37:04.806Z,6.03
2019-01-18T04:39:34.574Z,4.23
2019-01-18T04:42:04.495Z,3.07
2019-01-18T04:44:34.173Z,3.70
2019-01-18T04:47:03.853Z,2.50
2019-01-18T04:49:33.622Z,4.27
2019-01-18T04:52:05.148Z,6.43
2019-01-18T04:54:34.855Z,5.27
2019-01-18T04:57:04.569Z,5.60
2019-01-18T04:59:34.867Z,4.60
2019-01-18T05:02:04.729Z,4.73
2019-01-18T05:04:34.456Z,4.17
2019-01-18T05:07:04.299Z,5.07
2019-01-18T05:09:33.942Z,5.67
2019-01-18T05:12:03.744Z,4.23
2019-01-18T05:14:34.657Z,4.50
2019-01-18T05:17:04.664Z,5.17
2019-01-18T05:19:34.403Z,4.90
2019-01-18T05:22:04.564Z,5.77
2019-01-18T05:24:34.324Z,1.27
2019-01-18T05:27:04.044Z,3.27
2019-01-18T05:29:33.942Z,4.90
2019-01-18T05:32:03.821Z,2.57
2019-01-18T05:34:33.602Z,3.63
2019-01-18T05:37:03.361Z,8.57
2019-01-18T05:39:35.278Z,4.70
2019-01-18T05:42:05.212Z,7.90
2019-01-18T05:44:35.177Z,6.50
2019-01-18T05:47:06.028Z,3.70
2019-01-18T05:49:35.753Z,5.87
2019-01-18T05:52:05.407Z,5.00
2019-01-18T05:54:35.472Z,4.90
2019-01-18T05:57:05.334Z,6.20
2019-01-18T05:59:35.609Z,8.60
2019-01-18T06:02:05.447Z,4.57
2019-01-18T06:04:35.151Z,6.70
2019-01-18T06:07:05.138Z,4.93
2019-01-18T06:09:35.327Z,6.13
2019-01-18T06:12:05.530Z,4.43
2019-01-18T06:14:35.300Z,3.27
2019-01-18T06:17:05.619Z,7.70
2019-01-18T06:19:35.394Z,6.37
2019-01-18T06:22:05.267Z,7.70
2019-01-18T06:24:35.014Z,1.77
2019-01-18T06:27:04.751Z,5.17
2019-01-18T06:29:34.476Z,2.73
2019-01-18T06:32:04.175Z,7.20
2019-01-18T06:34:35.167Z,7.97
2019-01-18T06:37:04.973Z,6.43
2019-01-18T06:39:34.685Z,6.67
2019-01-18T06:42:04.655Z,4.93
2019-01-18T06:44:34.410Z,9.50
2019-01-18T06:47:04.202Z,6.90
2019-01-18T06:49:33.899Z,6.30
2019-01-18T06:52:03.690Z,6.27
2019-01-18T06:54:33.459Z,6.00
2019-01-18T06:57:03.141Z,5.67
2019-01-18T06:59:32.928Z,7.80
2019-01-18T07:02:02.636Z,6.70
2019-01-18T07:04:32.828Z,5.83
2019-01-18T07:07:02.565Z,5.27
2019-01-18T07:09:32.305Z,4.37
2019-01-18T07:12:05.290Z,7.00
2019-01-18T07:14:34.981Z,3.43
2019-01-18T07:17:04.686Z,5.00
2019-01-18T07:19:34.454Z,3.63
2019-01-18T07:22:04.335Z,6.20
2019-01-18T07:24:34.111Z,3.57
2019-01-18T07:27:03.779Z,3.33
2019-01-18T07:29:33.509Z,2.27
2019-01-18T07:32:04.827Z,5.30
2019-01-18T07:34:34.554Z,4.67
2019-01-18T07:37:04.334Z,6.43
2019-01-18T07:39:34.082Z,11.60
2019-01-18T07:42:05.987Z,8.13
2019-01-18T07:44:35.757Z,9.17
2019-01-18T07:47:05.761Z,5.10
2019-01-18T07:49:35.532Z,6.87
2019-01-18T07:52:05.309Z,7.70
2019-01-18T07:54:35.130Z,5.57
2019-01-18T07:57:04.892Z,6.57
2019-01-18T07:59:34.768Z,11.70
2019-01-18T08:02:06.432Z,10.10
2019-01-18T08:04:36.214Z,10.50
2019-01-18T08:07:06.009Z,8.77
2019-01-18T08:09:35.834Z,7.43
2019-01-18T08:12:07.279Z,14.40
2019-01-18T08:14:37.260Z,9.47
2019-01-18T08:17:07.050Z,13.57
2019-01-18T08:19:36.809Z,12.13
2019-01-18T08:22:06.650Z,8.83
2019-01-18T08:24:36.902Z,17.50
2019-01-18T08:27:07.547Z,7.63
2019-01-18T08:29:37.358Z,10.17
2019-01-18T08:32:07.203Z,7.50
2019-01-18T08:34:36.981Z,4.00
2019-01-18T08:37:06.755Z,4.43
2019-01-18T08:39:37.045Z,6.47
2019-01-18T08:42:08.210Z,5.53
2019-01-18T08:44:38.036Z,7.53
2019-01-18T08:47:08.470Z,7.90
2019-01-18T08:49:38.400Z,10.13
2019-01-18T08:52:08.253Z,6.63
2019-01-18T08:54:38.474Z,9.80
2019-01-18T08:57:08.823Z,13.10
2019-01-18T08:59:38.952Z,8.00
2019-01-18T09:02:09.128Z,11.47
2019-01-18T09:04:39.517Z,10.00
2019-01-18T09:07:09.334Z,3.50
2019-01-18T09:09:39.151Z,10.33
2019-01-18T09:12:08.928Z,6.67
2019-01-18T09:14:38.758Z,5.23
2019-01-18T09:17:08.523Z,3.13
2019-01-18T09:19:38.249Z,5.60
2019-01-18T09:22:07.992Z,6.40
2019-01-18T09:24:37.869Z,12.13
2019-01-18T09:27:07.654Z,3.77
2019-01-18T09:29:37.451Z,7.27
2019-01-18T09:32:07.310Z,7.97
2019-01-18T09:34:37.092Z,6.87
2019-01-18T09:37:07.353Z,5.43
2019-01-18T09:39:37.592Z,4.73
2019-01-18T09:42:08.062Z,5.17
2019-01-18T09:44:41.170Z,5.43
2019-01-18T09:47:11.229Z,2.10
2019-01-18T09:49:40.973Z,6.03
2019-01-18T09:52:10.865Z,2.60
2019-01-18T09:54:40.742Z,4.87
2019-01-18T09:57:10.495Z,3.17
2019-01-18T09:59:40.228Z,2.43
2019-01-18T10:02:09.947Z,2.83
2019-01-18T10:04:39.682Z,5.63
2019-01-18T10:07:11.763Z,3.53
2019-01-18T10:09:41.701Z,3.03
2019-01-18T10:12:11.696Z,5.53
2019-01-18T10:14:41.561Z,7.50
2019-01-18T10:17:11.576Z,2.47
2019-01-18T10:19:41.462Z,1.67
2019-01-18T10:22:11.385Z,5.40
2019-01-18T10:24:42.145Z,3.83
2019-01-18T10:27:12.074Z,1.50
2019-01-18T10:29:41.858Z,1.13
2019-01-18T10:32:11.577Z,4.27
2019-01-18T10:34:41.440Z,1.20
2019-01-18T10:37:11.183Z,4.70
2019-01-18T10:39:41.050Z,0.50
2019-01-18T10:42:12.224Z,1.77
2019-01-18T10:44:42.096Z,6.27
2019-01-18T10:47:12.888Z,6.63
2019-01-18T10:49:42.662Z,1.70
2019-01-18T10:52:12.550Z,6.30
2019-01-18T10:54:42.321Z,5.03
2019-01-18T10:57:12.073Z,1.97
2019-01-18T10:59:41.843Z,3.93
2019-01-18T11:02:11.540Z,3.37
2019-01-18T11:04:41.231Z,5.60
2019-01-18T11:07:11.023Z,5.33
2019-01-18T11:09:40.799Z,7.00
2019-01-18T11:12:20.575Z,5.87
2019-01-18T11:14:50.668Z,4.53
2019-01-18T11:17:20.908Z,8.07
2019-01-18T11:19:50.934Z,7.57
2019-01-18T11:22:20.942Z,2.87
2019-01-18T11:24:51.247Z,3.50
2019-01-18T11:27:40.019Z,2.33
2019-01-18T11:30:13.120Z,4.03
2019-01-18T11:32:43.053Z,7.30
2019-01-18T11:35:13.071Z,5.33
2019-01-18T11:37:42.993Z,4.43
2019-01-18T11:40:18.629Z,3.87
2019-01-18T11:42:48.718Z,10.00
2019-01-18T11:45:18.735Z,10.87
2019-01-18T11:47:48.659Z,5.13
2019-01-18T11:50:21.020Z,5.03
2019-01-18T11:52:50.794Z,4.40
2019-01-18T11:55:20.790Z,2.80
2019-01-18T11:57:50.617Z,3.33
2019-01-18T12:00:22.685Z,5.37
2019-01-18T12:02:52.596Z,3.77
2019-01-18T12:05:22.430Z,5.00
2019-01-18T12:07:52.164Z,3.53
2019-01-18T12:10:32.388Z,9.27
2019-01-18T12:13:02.128Z,6.10
2019-01-18T12:15:31.903Z,5.07
2019-01-18T12:18:02.448Z,5.67
2019-01-18T12:20:37.356Z,5.70
2019-01-18T12:23:07.966Z,12.77
2019-01-18T12:25:37.812Z,2.07
2019-01-18T12:28:07.942Z,4.23
2019-01-18T12:30:38.075Z,12.93
2019-01-18T12:33:07.907Z,4.53
2019-01-18T12:35:37.737Z,3.30
2019-01-18T12:38:07.721Z,2.63
2019-01-18T12:40:39.157Z,3.87
2019-01-18T12:43:08.993Z,5.23
2019-01-18T12:45:38.778Z,4.53
2019-01-18T12:48:08.760Z,5.33
2019-01-18T12:50:40.217Z,6.10
2019-01-18T12:53:09.982Z,4.77
2019-01-18T12:55:39.783Z,8.30
2019-01-18T12:58:09.547Z,5.40
2019-01-18T13:00:39.742Z,5.30
2019-01-18T13:03:10.003Z,2.93
2019-01-18T13:05:51.155Z,8.53
2019-01-18T13:08:21.309Z,6.00
2019-01-18T13:10:51.137Z,7.60
2019-01-18T13:13:20.856Z,5.97
2019-01-18T13:16:23.613Z,2.70
2019-01-18T13:18:59.366Z,2.37
2019-01-18T13:21:29.142Z,6.13
2019-01-18T13:23:58.979Z,3.63
2019-01-18T13:26:28.790Z,9.47
2019-01-18T13:28:58.486Z,7.93
2019-01-18T13:31:28.253Z,7.47
2019-01-18T13:33:58.157Z,8.73
2019-01-18T13:36:28.239Z,5.33
2019-01-18T13:38:58.329Z,5.57
2019-01-18T13:41:29.765Z,8.50
2019-01-18T13:44:00.234Z,5.70
2019-01-18T13:46:31.357Z,8.43
2019-01-18T13:49:01.521Z,9.70
2019-01-18T13:51:31.547Z,8.53
2019-01-18T13:54:04.356Z,10.33
2019-01-18T13:56:34.215Z,10.47
2019-01-18T13:59:04.502Z,9.00
2019-01-18T14:01:34.433Z,11.17
2019-01-18T14:04:06.805Z,10.60
2019-01-18T14:06:36.615Z,11.57
2019-01-18T14:09:09.097Z,9.00
2019-01-18T14:11:38.812Z,11.00
2019-01-18T14:14:08.857Z,7.80
2019-01-18T14:16:39.244Z,14.63
2019-01-18T14:19:10.785Z,21.30
2019-01-18T14:21:41.891Z,8.20
2019-01-18T14:24:12.069Z,10.57
2019-01-18T14:26:44.840Z,5.43
2019-01-18T14:29:14.702Z,8.97
2019-01-18T14:31:44.804Z,5.33
2019-01-18T14:34:15.545Z,7.73
2019-01-18T14:36:49.516Z,10.10
2019-01-18T14:39:19.232Z,7.57
2019-01-18T14:41:52.499Z,6.97
2019-01-18T14:44:23.996Z,7.87
2019-01-18T14:46:53.944Z,6.90
2019-01-18T14:49:24.281Z,5.77
2019-01-18T14:51:54.243Z,6.70
2019-01-18T14:54:25.965Z,9.53
2019-01-18T14:56:57.458Z,8.17
2019-01-18T14:59:29.093Z,14.30
2019-01-18T15:01:59.167Z,4.20
2019-01-18T15:04:29.360Z,6.27
2019-01-18T15:06:59.131Z,14.87
2019-01-18T15:09:29.346Z,10.87
2019-01-18T15:11:59.325Z,16.53
2019-01-18T15:14:29.651Z,24.12
2019-01-18T15:16:59.877Z,9.83
2019-01-18T15:19:32.565Z,9.67
2019-01-18T15:22:06.740Z,6.27
2019-01-18T15:24:37.071Z,5.20
2019-01-18T15:27:07.643Z,7.27
2019-01-18T15:29:38.420Z,7.57
2019-01-18T15:32:08.755Z,9.93
2019-01-18T15:34:40.653Z,8.20
2019-01-18T15:37:11.117Z,8.23
2019-01-18T15:39:43.587Z,8.77
2019-01-18T15:42:13.912Z,8.67
2019-01-18T15:44:43.967Z,10.20
2019-01-18T15:47:14.864Z,14.47
2019-01-18T15:49:44.918Z,11.57
2019-01-18T15:52:15.301Z,13.43
2019-01-18T15:54:45.992Z,6.77
2019-01-18T15:57:20.397Z,13.30
2019-01-18T15:59:50.719Z,11.43
2019-01-18T16:02:20.888Z,12.47
2019-01-18T16:04:50.784Z,12.17
2019-01-18T16:07:20.627Z,14.23
2019-01-18T16:09:58.521Z,12.33
2019-01-18T16:12:30.211Z,18.33
2019-01-18T16:15:00.272Z,18.70
2019-01-18T16:17:31.744Z,11.07
2019-01-18T16:20:01.708Z,14.00
2019-01-18T16:22:31.820Z,16.93
2019-01-18T16:25:01.624Z,15.03
2019-01-18T16:27:31.425Z,17.00
2019-01-18T16:30:12.157Z,19.27
2019-01-18T16:32:39.671Z,20.83
2019-01-18T16:35:10.699Z,19.03
2019-01-18T16:37:40.523Z,20.20
2019-01-18T16:40:15.078Z,21.73
2019-01-18T16:42:47.218Z,20.50
2019-01-18T16:45:17.336Z,23.00
2019-01-18T16:47:47.046Z,24.00
2019-01-18T16:50:16.835Z,20.37
2019-01-18T16:52:46.703Z,16.33
2019-01-18T16:55:16.496Z,14.70
2019-01-18T16:57:46.372Z,15.10
2019-01-18T17:00:22.653Z,36.00
2019-01-18T17:02:52.508Z,16.40
2019-01-18T17:05:22.561Z,20.40
2019-01-18T17:08:02.119Z,18.53
2019-01-18T17:10:32.145Z,23.53
2019-01-18T17:13:04.516Z,20.97
2019-01-18T17:15:37.789Z,15.00
2019-01-18T17:18:07.795Z,32.47
2019-01-18T17:20:39.900Z,14.03
2019-01-18T17:23:09.859Z,10.10
2019-01-18T17:25:39.792Z,9.23
2019-01-18T17:28:09.813Z,16.67
2019-01-18T17:30:39.976Z,32.63
2019-01-18T17:33:11.177Z,23.37
2019-01-18T17:35:47.112Z,12.47
2019-01-18T17:38:54.009Z,23.83
2019-01-18T17:41:48.924Z,17.87
2019-01-18T17:44:45.136Z,20.80
2019-01-18T17:48:08.419Z,14.23
2019-01-18T17:51:09.398Z,13.90
2019-01-18T17:54:16.379Z,12.30
2019-01-18T17:57:21.094Z,14.77
2019-01-18T18:00:22.742Z,14.17
2019-01-18T18:03:19.832Z,16.27
2019-01-18T18:06:34.465Z,15.57
2019-01-18T18:09:37.774Z,22.07
2019-01-18T18:12:53.203Z,14.20
2019-01-18T18:16:16.306Z,15.27
2019-01-18T18:19:37.172Z,19.17
2019-01-18T18:23:02.547Z,16.30
2019-01-18T18:26:08.063Z,18.23
2019-01-18T18:29:07.594Z,23.00
2019-01-18T18:32:19.277Z,17.20
2019-01-18T18:35:22.204Z,22.43
2019-01-18T18:38:48.485Z,15.90
2019-01-18T18:42:10.414Z,19.30
2019-01-18T18:45:02.489Z,19.63
2019-01-18T18:48:03.817Z,15.73
2019-01-18T18:51:03.307Z,17.70
2019-01-18T18:54:20.016Z,16.53
2019-01-18T18:57:11.158Z,19.13
2019-01-18T19:00:19.908Z,20.63
2019-01-18T19:03:25.717Z,17.23
2019-01-18T19:06:33.093Z,22.87
2019-01-18T19:09:19.425Z,20.87
2019-01-18T19:12:25.277Z,18.47
2019-01-18T19:15:38.478Z,18.57
2019-01-18T19:18:52.252Z,12.20
2019-01-18T19:21:55.721Z,16.33
2019-01-18T19:25:12.054Z,13.80
2019-01-18T19:28:09.116Z,15.10
2019-01-18T19:31:14.478Z,16.37
2019-01-18T19:34:49.502Z,15.70
2019-01-18T19:38:06.202Z,13.77
2019-01-18T19:41:19.983Z,12.83
2019-01-18T19:44:17.461Z,11.53
2019-01-18T19:47:20.086Z,12.43
2019-01-18T19:50:44.085Z,15.17
2019-01-18T19:53:24.952Z,21.67
2019-01-18T19:56:41.932Z,13.17
2019-01-18T19:59:48.519Z,19.23
2019-01-18T20:02:53.471Z,24.20
2019-01-18T20:06:04.472Z,32.53
2019-01-18T20:08:59.787Z,21.00
2019-01-18T20:12:14.034Z,26.17
2019-01-18T20:15:01.792Z,21.97
2019-01-18T20:17:57.614Z,19.13
2019-01-18T20:21:11.734Z,17.03
2019-01-18T20:24:30.092Z,23.57
2019-01-18T20:27:28.989Z,20.50
2019-01-18T20:30:45.522Z,16.33
2019-01-18T20:34:04.241Z,20.63
2019-01-18T20:37:23.932Z,32.90
2019-01-18T20:40:37.258Z,29.00
2019-01-18T20:43:35.766Z,21.63
2019-01-18T20:46:58.775Z,18.33
2019-01-18T20:50:18.616Z,17.73
2019-01-18T20:55:57.794Z,19.87
2019-01-18T20:59:16.330Z,23.80
2019-01-18T21:02:27.355Z,20.07
2019-01-18T21:05:21.285Z,20.40
2019-01-18T21:08:42.952Z,21.23
2019-01-18T21:11:24.401Z,25.93
2019-01-18T21:14:42.453Z,27.27
2019-01-18T21:17:54.220Z,23.80
2019-01-18T21:20:59.934Z,22.07
2019-01-18T21:24:13.721Z,22.90
2019-01-18T21:27:51.631Z,25.70
2019-01-18T21:31:00.593Z,24.40
2019-01-18T21:34:00.853Z,23.80
2019-01-18T21:37:13.404Z,26.40
2019-01-18T21:40:08.891Z,19.80
2019-01-18T21:43:00.325Z,24.17
2019-01-18T21:46:02.832Z,33.27
2019-01-18T21:49:12.429Z,27.60
2019-01-18T21:52:25.297Z,24.37
2019-01-18T21:56:08.062Z,22.07
2019-01-18T21:59:10.147Z,22.97
2019-01-18T22:02:22.030Z,22.67
2019-01-18T22:05:04.160Z,24.17
2019-01-18T22:08:12.202Z,25.50
2019-01-18T22:11:10.251Z,24.60
2019-01-18T22:13:51.012Z,26.00
2019-01-18T22:16:56.566Z,23.50
2019-01-18T22:19:48.505Z,22.63
2019-01-18T22:23:02.226Z,19.47
2019-01-18T22:25:43.605Z,23.80
2019-01-18T22:28:56.206Z,26.47
2019-01-18T22:32:12.214Z,22.57
2019-01-18T22:34:57.806Z,25.90
2019-01-18T22:38:11.199Z,25.87
2019-01-18T22:41:23.950Z,26.40
2019-01-18T22:44:12.539Z,22.50
2019-01-18T22:47:46.605Z,27.83
2019-01-18T22:51:12.411Z,23.93
2019-01-18T22:54:35.357Z,22.40
2019-01-18T22:57:39.180Z,26.13
2019-01-18T23:01:06.695Z,27.10
2019-01-18T23:03:48.404Z,25.53
2019-01-18T23:06:50.748Z,23.83
2019-01-18T23:09:56.193Z,29.70
2019-01-18T23:12:49.459Z,24.67
2019-01-18T23:16:02.860Z,23.70
2019-01-18T23:18:45.662Z,25.33
2019-01-18T23:21:48.536Z,26.53
2019-01-18T23:24:31.616Z,24.93
2019-01-18T23:27:37.749Z,25.63
2019-01-18T23:30:44.407Z,30.87
2019-01-18T23:34:09.330Z,26.03
2019-01-18T23:37:07.707Z,26.30
2019-01-18T23:40:09.088Z,27.33
2019-01-18T23:43:02.937Z,14.80
2019-01-18T23:46:23.045Z,24.53
2019-01-18T23:49:30.564Z,13.87
2019-01-18T23:52:49.974Z,16.77
2019-01-18T23:55:44.696Z,19.57
2019-01-18T23:58:32.236Z,15.43
